Portada
METAR-TAF:

METAR-TAF

Aeropuertos :

Colmenar Viejo, España

latitud: 40-39N, longitud: 003-44W, altitud: -999 m

Observación

El informe se hizo hace 35 minutos, a las 16:30 UTC
Viento 11 kt del este-noreste
Temperatura 25°C
Humedad 30%
Presión 1023 hPa
Visibilidad 10 km o más
Escasas nubes a una altura de 6500 ft

METAR: LECV 261630Z 07011KT 9999 FEW065 25/06 Q1023

Hora: 19:05 (17:05 UTC)

Pronóstico

El informe se hizo hace 6 horas y 5 minutos, a las 11:00 UTC
Pronóstico válido del 26 a las 12 UTC al 27 a las 12 UTC
Viento 12 kt del noreste
Visibilidad 10 km o más
sin nubes por debajo de 1500 m y sin presencia de cumulonimbus.

TAF: LECV 261100Z 2612/2712 05012KT CAVOK TX25/2616Z TN10/2706Z

Observaciones y pronósticos meteorológicos de más de 4000 aeropuertos (mensajes METAR y TAF).

Los puntos amarillos y rojos representan las estaciones disponibles.

Ponga el ratón en el punto deseado para ver el nombre de la estación.

Haga clic para ver las observaciones y los pronósticos meteorológicos.

Para cambiar el mapa : haga clic en los botones verdes con una cruz de color negro para hacer un zoom, en el botón verde con un guión para alejar o en las flechas verdes para mapas adyacentes.


METAR-TAF: